Ada, Kansas
Current Conditions -  °F | °C
As of 12:53 AM on Saturday 29 Nov 2014 (Local Time) from KSLN Reporting Station
Clear Clear  
Wind Chill: 44°   Ceiling: Unl
Heat Index: 49°   Visibility: 10mi
Dew Point: 38°   Wind: 13mph
Humidity: 66%   Direction: 190°S
Pressure: 29.68"   Gusts: NA
Location:  39.1542°N, 97.5941°W
Report Text: KSLN 290653Z AUTO 19011KT 10SM CLR 09/03 A2968 RMK AO2 SLP047 T00940033
Loading
Personal Weather Stations






























Interactive Weather Map New forecast layout! Learn more

10-Day Weather Forecast

Advertisements
Track Severe Weather on mobile